sensor_id;sensor_type;location;lat;lon;timestamp;pressure;altitude;pressure_sealevel;temperature;humidity
59971;BME280;45825;45.434;9.116;2024-02-14T00:02:17;100900.19;;;8.84;100.00
59971;BME280;45825;45.434;9.116;2024-02-14T00:04:43;100885.38;;;8.83;100.00
59971;BME280;45825;45.434;9.116;2024-02-14T00:07:08;100887.88;;;8.86;100.00
59971;BME280;45825;45.434;9.116;2024-02-14T00:09:34;100885.53;;;8.78;100.00
59971;BME280;45825;45.434;9.116;2024-02-14T00:11:59;100887.81;;;8.87;100.00
59971;BME280;45825;45.434;9.116;2024-02-14T00:14:24;100886.16;;;8.85;100.00
59971;BME280;45825;45.434;9.116;2024-02-14T00:16:49;100878.16;;;8.88;100.00
59971;BME280;45825;45.434;9.116;2024-02-14T00:19:16;100884.28;;;8.88;100.00
59971;BME280;45825;45.434;9.116;2024-02-14T00:21:41;100880.16;;;8.81;100.00
59971;BME280;45825;45.434;9.116;2024-02-14T00:24:07;100880.00;;;8.86;100.00
59971;BME280;45825;45.434;9.116;2024-02-14T00:26:32;100878.06;;;8.91;100.00
59971;BME280;45825;45.434;9.116;2024-02-14T00:28:58;100885.16;;;8.89;100.00
59971;BME280;45825;45.434;9.116;2024-02-14T00:31:23;100891.66;;;8.78;100.00
59971;BME280;45825;45.434;9.116;2024-02-14T00:33:48;100891.00;;;8.72;100.00
59971;BME280;45825;45.434;9.116;2024-02-14T00:36:13;100899.78;;;8.71;100.00
59971;BME280;45825;45.434;9.116;2024-02-14T00:38:39;100899.28;;;8.85;100.00
59971;BME280;45825;45.434;9.116;2024-02-14T00:41:04;100898.97;;;8.92;100.00
59971;BME280;45825;45.434;9.116;2024-02-14T00:43:29;100898.81;;;8.97;100.00
59971;BME280;45825;45.434;9.116;2024-02-14T00:45:55;100901.34;;;9.00;100.00
59971;BME280;45825;45.434;9.116;2024-02-14T00:48:22;100909.13;;;9.02;100.00
59971;BME280;45825;45.434;9.116;2024-02-14T00:50:47;100907.47;;;8.99;100.00
59971;BME280;45825;45.434;9.116;2024-02-14T00:53:12;100910.47;;;8.90;100.00
59971;BME280;45825;45.434;9.116;2024-02-14T00:55:38;100920.31;;;8.83;100.00
59971;BME280;45825;45.434;9.116;2024-02-14T00:58:04;100914.81;;;8.67;100.00
59971;BME280;45825;45.434;9.116;2024-02-14T01:00:29;100917.94;;;8.77;100.00
59971;BME280;45825;45.434;9.116;2024-02-14T01:02:54;100915.50;;;8.72;100.00
59971;BME280;45825;45.434;9.116;2024-02-14T01:05:21;100923.59;;;8.66;100.00
59971;BME280;45825;45.434;9.116;2024-02-14T01:07:46;100928.28;;;8.82;100.00
59971;BME280;45825;45.434;9.116;2024-02-14T01:10:11;100925.66;;;8.82;100.00
59971;BME280;45825;45.434;9.116;2024-02-14T01:12:37;100921.16;;;8.85;100.00
59971;BME280;45825;45.434;9.116;2024-02-14T01:15:02;100926.44;;;8.84;100.00
59971;BME280;45825;45.434;9.116;2024-02-14T01:17:28;100934.66;;;8.74;100.00
59971;BME280;45825;45.434;9.116;2024-02-14T01:19:53;100944.97;;;8.79;100.00
59971;BME280;45825;45.434;9.116;2024-02-14T01:22:19;100945.16;;;8.74;100.00
59971;BME280;45825;45.434;9.116;2024-02-14T01:24:44;100943.72;;;8.65;100.00
59971;BME280;45825;45.434;9.116;2024-02-14T01:27:10;100942.78;;;8.68;100.00
59971;BME280;45825;45.434;9.116;2024-02-14T01:29:35;100945.59;;;8.86;100.00
59971;BME280;45825;45.434;9.116;2024-02-14T01:32:00;100945.50;;;8.89;100.00
59971;BME280;45825;45.434;9.116;2024-02-14T01:34:26;100950.19;;;8.80;100.00
59971;BME280;45825;45.434;9.116;2024-02-14T01:36:53;100942.28;;;9.04;100.00
59971;BME280;45825;45.434;9.116;2024-02-14T01:39:19;100951.47;;;8.92;100.00
59971;BME280;45825;45.434;9.116;2024-02-14T01:41:48;100957.06;;;8.83;100.00
59971;BME280;45825;45.434;9.116;2024-02-14T01:44:15;100952.84;;;9.03;100.00
59971;BME280;45825;45.434;9.116;2024-02-14T01:46:41;100947.75;;;9.44;95.48
59971;BME280;45825;45.434;9.116;2024-02-14T01:49:08;100947.75;;;9.22;95.09
59971;BME280;45825;45.434;9.116;2024-02-14T01:51:35;100952.38;;;9.15;100.00
59971;BME280;45825;45.434;9.116;2024-02-14T01:54:02;100951.91;;;8.82;100.00
59971;BME280;45825;45.434;9.116;2024-02-14T01:56:29;100956.34;;;8.79;100.00
59971;BME280;45825;45.434;9.116;2024-02-14T01:58:55;100950.66;;;8.92;100.00
59971;BME280;45825;45.434;9.116;2024-02-14T02:01:21;100948.00;;;8.92;100.00
59971;BME280;45825;45.434;9.116;2024-02-14T02:03:48;100952.81;;;8.80;100.00
59971;BME280;45825;45.434;9.116;2024-02-14T02:06:14;100954.34;;;8.86;100.00
59971;BME280;45825;45.434;9.116;2024-02-14T02:08:43;100949.81;;;8.66;100.00
59971;BME280;45825;45.434;9.116;2024-02-14T02:11:08;100945.81;;;8.56;100.00
59971;BME280;45825;45.434;9.116;2024-02-14T02:13:34;100955.06;;;8.66;100.00
59971;BME280;45825;45.434;9.116;2024-02-14T02:15:59;100952.72;;;8.58;100.00
59971;BME280;45825;45.434;9.116;2024-02-14T02:18:30;100947.78;;;8.49;100.00
59971;BME280;45825;45.434;9.116;2024-02-14T02:20:56;100947.31;;;8.37;100.00
59971;BME280;45825;45.434;9.116;2024-02-14T02:23:22;100951.88;;;8.32;100.00
59971;BME280;45825;45.434;9.116;2024-02-14T02:25:48;100945.00;;;8.28;100.00
59971;BME280;45825;45.434;9.116;2024-02-14T02:28:13;100939.75;;;8.28;100.00
59971;BME280;45825;45.434;9.116;2024-02-14T02:30:40;100939.22;;;8.18;100.00
59971;BME280;45825;45.434;9.116;2024-02-14T02:33:05;100945.44;;;8.16;100.00
59971;BME280;45825;45.434;9.116;2024-02-14T02:35:32;100946.41;;;8.13;100.00
59971;BME280;45825;45.434;9.116;2024-02-14T02:37:58;100932.75;;;8.03;100.00
59971;BME280;45825;45.434;9.116;2024-02-14T02:40:24;100939.69;;;8.04;100.00
59971;BME280;45825;45.434;9.116;2024-02-14T02:42:49;100941.53;;;8.02;100.00
59971;BME280;45825;45.434;9.116;2024-02-14T02:45:16;100936.56;;;7.94;100.00
59971;BME280;45825;45.434;9.116;2024-02-14T02:47:41;100937.38;;;7.95;100.00
59971;BME280;45825;45.434;9.116;2024-02-14T02:50:07;100945.41;;;7.90;100.00
59971;BME280;45825;45.434;9.116;2024-02-14T02:52:33;100956.50;;;7.99;100.00
59971;BME280;45825;45.434;9.116;2024-02-14T02:54:59;100958.47;;;7.92;100.00
59971;BME280;45825;45.434;9.116;2024-02-14T02:57:25;100957.66;;;7.90;100.00
59971;BME280;45825;45.434;9.116;2024-02-14T02:59:52;100962.34;;;7.80;100.00
59971;BME280;45825;45.434;9.116;2024-02-14T03:02:17;100964.31;;;7.73;100.00
59971;BME280;45825;45.434;9.116;2024-02-14T03:04:44;100960.63;;;7.79;100.00
59971;BME280;45825;45.434;9.116;2024-02-14T03:07:10;100956.88;;;7.88;100.00
59971;BME280;45825;45.434;9.116;2024-02-14T03:09:35;100955.16;;;7.87;100.00
59971;BME280;45825;45.434;9.116;2024-02-14T03:12:02;100970.78;;;7.90;100.00
59971;BME280;45825;45.434;9.116;2024-02-14T03:14:31;100974.56;;;7.81;100.00
59971;BME280;45825;45.434;9.116;2024-02-14T03:17:01;100967.75;;;7.75;100.00
59971;BME280;45825;45.434;9.116;2024-02-14T03:19:27;100962.66;;;7.71;100.00
59971;BME280;45825;45.434;9.116;2024-02-14T03:21:54;100969.78;;;7.65;100.00
59971;BME280;45825;45.434;9.116;2024-02-14T03:24:19;100970.75;;;7.63;100.00
59971;BME280;45825;45.434;9.116;2024-02-14T03:26:45;100970.81;;;7.61;100.00
59971;BME280;45825;45.434;9.116;2024-02-14T03:29:10;100968.38;;;7.55;100.00
59971;BME280;45825;45.434;9.116;2024-02-14T03:31:35;100968.84;;;7.68;100.00
59971;BME280;45825;45.434;9.116;2024-02-14T03:34:01;100967.19;;;7.65;100.00
59971;BME280;45825;45.434;9.116;2024-02-14T03:36:27;100968.97;;;7.65;100.00
59971;BME280;45825;45.434;9.116;2024-02-14T03:38:55;100966.47;;;7.60;100.00
59971;BME280;45825;45.434;9.116;2024-02-14T03:41:21;100969.75;;;7.67;100.00
59971;BME280;45825;45.434;9.116;2024-02-14T03:43:46;100967.94;;;7.69;100.00
59971;BME280;45825;45.434;9.116;2024-02-14T03:46:11;100969.69;;;7.68;100.00
59971;BME280;45825;45.434;9.116;2024-02-14T03:48:38;100970.94;;;7.57;100.00
59971;BME280;45825;45.434;9.116;2024-02-14T03:51:05;100974.47;;;7.55;100.00
59971;BME280;45825;45.434;9.116;2024-02-14T03:53:31;100969.78;;;7.65;100.00
59971;BME280;45825;45.434;9.116;2024-02-14T03:55:58;100973.47;;;7.60;100.00
59971;BME280;45825;45.434;9.116;2024-02-14T03:58:23;100984.97;;;7.55;100.00
59971;BME280;45825;45.434;9.116;2024-02-14T04:00:51;100993.13;;;7.45;100.00
59971;BME280;45825;45.434;9.116;2024-02-14T04:03:17;100987.13;;;7.41;100.00
59971;BME280;45825;45.434;9.116;2024-02-14T04:05:43;100995.06;;;7.39;100.00
59971;BME280;45825;45.434;9.116;2024-02-14T04:08:09;100996.88;;;7.37;100.00
59971;BME280;45825;45.434;9.116;2024-02-14T04:10:35;101000.47;;;7.33;100.00
59971;BME280;45825;45.434;9.116;2024-02-14T04:13:03;101010.09;;;7.33;100.00
59971;BME280;45825;45.434;9.116;2024-02-14T04:15:29;101013.03;;;7.20;100.00
59971;BME280;45825;45.434;9.116;2024-02-14T04:17:54;101010.38;;;7.23;100.00
59971;BME280;45825;45.434;9.116;2024-02-14T04:20:19;101008.44;;;7.29;100.00
59971;BME280;45825;45.434;9.116;2024-02-14T04:22:45;101014.84;;;7.18;100.00
59971;BME280;45825;45.434;9.116;2024-02-14T04:25:10;101011.56;;;7.11;100.00
59971;BME280;45825;45.434;9.116;2024-02-14T04:27:37;101021.66;;;7.24;100.00
59971;BME280;45825;45.434;9.116;2024-02-14T04:30:02;101020.69;;;7.28;100.00
59971;BME280;45825;45.434;9.116;2024-02-14T04:32:27;101015.31;;;7.33;100.00
59971;BME280;45825;45.434;9.116;2024-02-14T04:34:53;101019.06;;;7.24;100.00
59971;BME280;45825;45.434;9.116;2024-02-14T04:37:18;101007.13;;;7.13;100.00
59971;BME280;45825;45.434;9.116;2024-02-14T04:39:44;101010.25;;;7.26;100.00
59971;BME280;45825;45.434;9.116;2024-02-14T04:42:09;101013.25;;;7.14;100.00
59971;BME280;45825;45.434;9.116;2024-02-14T04:44:34;101012.47;;;7.10;100.00
59971;BME280;45825;45.434;9.116;2024-02-14T04:47:00;101009.16;;;7.05;100.00
59971;BME280;45825;45.434;9.116;2024-02-14T04:49:26;101004.88;;;7.01;100.00
59971;BME280;45825;45.434;9.116;2024-02-14T04:51:51;101018.66;;;7.08;100.00
59971;BME280;45825;45.434;9.116;2024-02-14T04:54:17;101020.81;;;6.93;100.00
59971;BME280;45825;45.434;9.116;2024-02-14T04:56:43;101019.06;;;6.94;100.00
59971;BME280;45825;45.434;9.116;2024-02-14T04:59:08;101017.88;;;7.04;100.00
59971;BME280;45825;45.434;9.116;2024-02-14T05:01:34;101020.66;;;6.99;100.00
59971;BME280;45825;45.434;9.116;2024-02-14T05:03:59;101026.84;;;6.95;100.00
59971;BME280;45825;45.434;9.116;2024-02-14T05:06:24;101023.25;;;6.99;100.00
59971;BME280;45825;45.434;9.116;2024-02-14T05:08:50;101014.59;;;7.27;100.00
59971;BME280;45825;45.434;9.116;2024-02-14T05:11:17;101020.34;;;7.09;100.00
59971;BME280;45825;45.434;9.116;2024-02-14T05:13:42;101025.88;;;6.99;100.00
59971;BME280;45825;45.434;9.116;2024-02-14T05:16:09;101026.16;;;6.89;100.00
59971;BME280;45825;45.434;9.116;2024-02-14T05:18:36;101029.00;;;6.81;100.00
59971;BME280;45825;45.434;9.116;2024-02-14T05:21:05;101030.25;;;6.99;100.00
59971;BME280;45825;45.434;9.116;2024-02-14T05:23:31;101036.63;;;6.89;100.00
59971;BME280;45825;45.434;9.116;2024-02-14T05:25:56;101028.75;;;6.90;100.00
59971;BME280;45825;45.434;9.116;2024-02-14T05:28:21;101030.28;;;6.97;100.00
59971;BME280;45825;45.434;9.116;2024-02-14T05:30:47;101029.53;;;6.94;100.00
59971;BME280;45825;45.434;9.116;2024-02-14T05:33:12;101020.56;;;7.03;100.00
59971;BME280;45825;45.434;9.116;2024-02-14T05:35:37;101023.19;;;7.01;100.00
59971;BME280;45825;45.434;9.116;2024-02-14T05:38:03;101027.59;;;7.01;100.00
59971;BME280;45825;45.434;9.116;2024-02-14T05:40:29;101034.88;;;6.89;100.00
59971;BME280;45825;45.434;9.116;2024-02-14T05:42:54;101031.44;;;6.87;100.00
59971;BME280;45825;45.434;9.116;2024-02-14T05:45:21;101039.13;;;6.93;100.00
59971;BME280;45825;45.434;9.116;2024-02-14T05:47:46;101045.47;;;6.84;100.00
59971;BME280;45825;45.434;9.116;2024-02-14T05:50:11;101045.53;;;6.81;100.00
59971;BME280;45825;45.434;9.116;2024-02-14T05:52:38;101048.00;;;6.88;100.00
59971;BME280;45825;45.434;9.116;2024-02-14T05:55:04;101047.78;;;6.95;100.00
59971;BME280;45825;45.434;9.116;2024-02-14T05:57:30;101042.66;;;6.92;100.00
59971;BME280;45825;45.434;9.116;2024-02-14T05:59:55;101042.91;;;6.83;100.00
59971;BME280;45825;45.434;9.116;2024-02-14T06:02:21;101052.47;;;6.82;100.00
59971;BME280;45825;45.434;9.116;2024-02-14T06:04:46;101048.03;;;6.86;100.00
59971;BME280;45825;45.434;9.116;2024-02-14T06:07:12;101051.47;;;6.88;100.00
59971;BME280;45825;45.434;9.116;2024-02-14T06:09:37;101067.31;;;6.83;100.00
59971;BME280;45825;45.434;9.116;2024-02-14T06:12:03;101071.50;;;6.89;100.00
59971;BME280;45825;45.434;9.116;2024-02-14T06:14:29;101065.56;;;6.82;100.00
59971;BME280;45825;45.434;9.116;2024-02-14T06:16:56;101072.00;;;6.70;100.00
59971;BME280;45825;45.434;9.116;2024-02-14T06:19:22;101072.56;;;6.82;100.00
59971;BME280;45825;45.434;9.116;2024-02-14T06:21:48;101082.38;;;6.74;100.00
59971;BME280;45825;45.434;9.116;2024-02-14T06:24:13;101102.41;;;6.75;100.00
59971;BME280;45825;45.434;9.116;2024-02-14T06:26:39;101092.06;;;6.70;100.00
59971;BME280;45825;45.434;9.116;2024-02-14T06:29:04;101092.34;;;6.59;100.00
59971;BME280;45825;45.434;9.116;2024-02-14T06:31:29;101088.81;;;6.62;100.00
59971;BME280;45825;45.434;9.116;2024-02-14T06:33:55;101097.50;;;6.62;100.00
59971;BME280;45825;45.434;9.116;2024-02-14T06:36:20;101097.53;;;6.61;100.00
59971;BME280;45825;45.434;9.116;2024-02-14T06:38:45;101098.19;;;6.69;100.00
59971;BME280;45825;45.434;9.116;2024-02-14T06:41:12;101105.00;;;6.76;100.00
59971;BME280;45825;45.434;9.116;2024-02-14T06:43:37;101114.97;;;6.62;100.00
59971;BME280;45825;45.434;9.116;2024-02-14T06:46:05;101126.03;;;6.71;100.00
59971;BME280;45825;45.434;9.116;2024-02-14T06:48:30;101134.03;;;6.65;100.00
59971;BME280;45825;45.434;9.116;2024-02-14T06:50:55;101135.78;;;6.65;100.00
59971;BME280;45825;45.434;9.116;2024-02-14T06:53:21;101133.53;;;6.49;100.00
59971;BME280;45825;45.434;9.116;2024-02-14T06:55:47;101138.88;;;6.45;100.00
59971;BME280;45825;45.434;9.116;2024-02-14T06:58:12;101135.94;;;6.59;100.00
59971;BME280;45825;45.434;9.116;2024-02-14T07:00:37;101132.47;;;6.58;100.00
59971;BME280;45825;45.434;9.116;2024-02-14T07:03:03;101127.53;;;6.80;100.00
59971;BME280;45825;45.434;9.116;2024-02-14T07:05:28;101132.66;;;6.85;100.00
59971;BME280;45825;45.434;9.116;2024-02-14T07:07:57;101141.50;;;6.81;100.00
59971;BME280;45825;45.434;9.116;2024-02-14T07:10:22;101148.47;;;6.80;100.00
59971;BME280;45825;45.434;9.116;2024-02-14T07:12:47;101143.91;;;6.89;100.00
59971;BME280;45825;45.434;9.116;2024-02-14T07:15:13;101145.63;;;6.90;100.00
59971;BME280;45825;45.434;9.116;2024-02-14T07:17:38;101154.84;;;7.05;100.00
59971;BME280;45825;45.434;9.116;2024-02-14T07:20:05;101157.41;;;7.06;100.00
59971;BME280;45825;45.434;9.116;2024-02-14T07:22:31;101165.75;;;7.21;100.00
59971;BME280;45825;45.434;9.116;2024-02-14T07:24:56;101152.63;;;7.22;100.00
59971;BME280;45825;45.434;9.116;2024-02-14T07:27:21;101158.25;;;7.40;100.00
59971;BME280;45825;45.434;9.116;2024-02-14T07:29:49;101161.94;;;7.33;100.00
59971;BME280;45825;45.434;9.116;2024-02-14T07:32:14;101164.06;;;7.18;100.00
59971;BME280;45825;45.434;9.116;2024-02-14T07:34:40;101160.47;;;7.22;100.00
59971;BME280;45825;45.434;9.116;2024-02-14T07:37:05;101171.47;;;7.35;100.00
59971;BME280;45825;45.434;9.116;2024-02-14T07:39:30;101172.13;;;7.44;100.00
59971;BME280;45825;45.434;9.116;2024-02-14T07:41:56;101176.63;;;7.38;100.00
59971;BME280;45825;45.434;9.116;2024-02-14T07:44:22;101170.66;;;7.33;100.00
59971;BME280;45825;45.434;9.116;2024-02-14T07:46:49;101184.53;;;7.37;100.00
59971;BME280;45825;45.434;9.116;2024-02-14T07:49:14;101178.78;;;7.55;100.00
59971;BME280;45825;45.434;9.116;2024-02-14T07:51:39;101173.19;;;7.68;100.00
59971;BME280;45825;45.434;9.116;2024-02-14T07:54:05;101172.97;;;7.76;100.00
59971;BME280;45825;45.434;9.116;2024-02-14T07:56:31;101171.88;;;7.83;100.00
59971;BME280;45825;45.434;9.116;2024-02-14T07:58:57;101182.03;;;7.94;100.00
59971;BME280;45825;45.434;9.116;2024-02-14T08:01:22;101175.94;;;7.63;100.00
59971;BME280;45825;45.434;9.116;2024-02-14T08:03:48;101184.19;;;7.49;100.00
59971;BME280;45825;45.434;9.116;2024-02-14T08:06:13;101186.50;;;7.60;100.00
59971;BME280;45825;45.434;9.116;2024-02-14T08:08:39;101181.59;;;7.79;100.00
59971;BME280;45825;45.434;9.116;2024-02-14T08:11:04;101186.50;;;7.90;100.00
59971;BME280;45825;45.434;9.116;2024-02-14T08:13:30;101177.84;;;7.88;100.00
59971;BME280;45825;45.434;9.116;2024-02-14T08:15:55;101184.09;;;7.84;100.00
59971;BME280;45825;45.434;9.116;2024-02-14T08:18:21;101192.91;;;7.80;100.00
59971;BME280;45825;45.434;9.116;2024-02-14T08:20:46;101191.16;;;7.80;100.00
59971;BME280;45825;45.434;9.116;2024-02-14T08:23:12;101190.88;;;7.91;100.00
59971;BME280;45825;45.434;9.116;2024-02-14T08:25:37;101193.31;;;7.96;100.00
59971;BME280;45825;45.434;9.116;2024-02-14T08:28:02;101191.28;;;8.07;100.00
59971;BME280;45825;45.434;9.116;2024-02-14T08:30:28;101192.75;;;8.16;100.00
59971;BME280;45825;45.434;9.116;2024-02-14T08:32:53;101184.72;;;8.51;100.00
59971;BME280;45825;45.434;9.116;2024-02-14T08:35:19;101188.94;;;8.55;100.00
59971;BME280;45825;45.434;9.116;2024-02-14T08:37:44;101193.94;;;8.63;100.00
59971;BME280;45825;45.434;9.116;2024-02-14T08:40:10;101195.25;;;8.48;100.00
59971;BME280;45825;45.434;9.116;2024-02-14T08:42:37;101190.81;;;8.50;100.00
59971;BME280;45825;45.434;9.116;2024-02-14T08:45:04;101188.84;;;8.58;100.00
59971;BME280;45825;45.434;9.116;2024-02-14T08:47:29;101184.09;;;8.70;100.00
59971;BME280;45825;45.434;9.116;2024-02-14T08:49:54;101180.16;;;8.83;100.00
59971;BME280;45825;45.434;9.116;2024-02-14T08:52:20;101177.53;;;8.83;100.00
59971;BME280;45825;45.434;9.116;2024-02-14T08:54:46;101176.66;;;8.84;100.00
59971;BME280;45825;45.434;9.116;2024-02-14T08:57:11;101175.72;;;8.85;100.00
59971;BME280;45825;45.434;9.116;2024-02-14T08:59:37;101176.56;;;8.86;100.00
59971;BME280;45825;45.434;9.116;2024-02-14T09:02:02;101179.81;;;8.94;100.00
59971;BME280;45825;45.434;9.116;2024-02-14T09:04:27;101171.78;;;8.99;100.00
59971;BME280;45825;45.434;9.116;2024-02-14T09:06:53;101173.69;;;9.19;100.00
59971;BME280;45825;45.434;9.116;2024-02-14T09:09:18;101179.09;;;9.14;93.60
59971;BME280;45825;45.434;9.116;2024-02-14T09:11:44;101177.34;;;9.15;95.96
59971;BME280;45825;45.434;9.116;2024-02-14T09:14:11;101181.38;;;9.25;96.74
59971;BME280;45825;45.434;9.116;2024-02-14T09:16:36;101171.00;;;9.46;88.94
59971;BME280;45825;45.434;9.116;2024-02-14T09:19:02;101170.09;;;9.47;85.78
59971;BME280;45825;45.434;9.116;2024-02-14T09:21:28;101175.31;;;9.48;86.84
59971;BME280;45825;45.434;9.116;2024-02-14T09:23:54;101179.28;;;9.59;85.17
59971;BME280;45825;45.434;9.116;2024-02-14T09:26:20;101178.47;;;9.81;81.69
59971;BME280;45825;45.434;9.116;2024-02-14T09:28:45;101190.09;;;9.75;81.07
59971;BME280;45825;45.434;9.116;2024-02-14T09:31:10;101199.75;;;9.74;80.52
59971;BME280;45825;45.434;9.116;2024-02-14T09:33:37;101194.53;;;9.73;79.63
59971;BME280;45825;45.434;9.116;2024-02-14T09:36:03;101193.13;;;9.88;79.79
59971;BME280;45825;45.434;9.116;2024-02-14T09:38:30;101195.00;;;9.84;79.65
59971;BME280;45825;45.434;9.116;2024-02-14T09:40:58;101196.19;;;9.99;80.15
59971;BME280;45825;45.434;9.116;2024-02-14T09:43:38;101196.97;;;10.01;76.33
59971;BME280;45825;45.434;9.116;2024-02-14T09:46:06;101190.72;;;10.05;75.20
59971;BME280;45825;45.434;9.116;2024-02-14T09:48:32;101193.16;;;10.10;77.67
59971;BME280;45825;45.434;9.116;2024-02-14T09:50:59;101192.28;;;10.10;80.01
59971;BME280;45825;45.434;9.116;2024-02-14T09:53:26;101201.84;;;10.12;83.08
59971;BME280;45825;45.434;9.116;2024-02-14T09:55:52;101200.41;;;10.27;84.00
59971;BME280;45825;45.434;9.116;2024-02-14T09:58:18;101203.88;;;10.28;85.26
59971;BME280;45825;45.434;9.116;2024-02-14T10:00:44;101201.84;;;10.12;88.24
59971;BME280;45825;45.434;9.116;2024-02-14T10:03:10;101204.56;;;10.33;88.97
59971;BME280;45825;45.434;9.116;2024-02-14T10:05:36;101210.09;;;10.49;87.47
59971;BME280;45825;45.434;9.116;2024-02-14T10:08:01;101212.88;;;10.46;87.94
59971;BME280;45825;45.434;9.116;2024-02-14T10:10:27;101214.31;;;10.53;86.36
59971;BME280;45825;45.434;9.116;2024-02-14T10:12:54;101211.25;;;10.64;87.11
59971;BME280;45825;45.434;9.116;2024-02-14T10:15:20;101217.19;;;10.69;86.36
59971;BME280;45825;45.434;9.116;2024-02-14T10:17:45;101218.59;;;10.99;84.92
59971;BME280;45825;45.434;9.116;2024-02-14T10:20:16;101224.50;;;11.06;82.63
59971;BME280;45825;45.434;9.116;2024-02-14T10:22:42;101218.88;;;11.34;82.34
59971;BME280;45825;45.434;9.116;2024-02-14T10:25:08;101216.94;;;11.58;75.32
59971;BME280;45825;45.434;9.116;2024-02-14T10:27:37;101218.91;;;11.93;73.87
59971;BME280;45825;45.434;9.116;2024-02-14T10:30:07;101223.53;;;12.46;71.13
59971;BME280;45825;45.434;9.116;2024-02-14T10:32:39;101199.56;;;13.56;66.28
59971;BME280;45825;45.434;9.116;2024-02-14T10:35:06;101206.97;;;14.15;61.83
59971;BME280;45825;45.434;9.116;2024-02-14T10:37:37;101195.97;;;14.70;60.73
59971;BME280;45825;45.434;9.116;2024-02-14T10:40:04;101185.34;;;15.31;57.38
59971;BME280;45825;45.434;9.116;2024-02-14T10:42:30;101187.81;;;16.34;55.17
59971;BME280;45825;45.434;9.116;2024-02-14T10:44:56;101184.53;;;16.16;54.56
59971;BME280;45825;45.434;9.116;2024-02-14T10:47:24;101188.22;;;17.09;52.76
59971;BME280;45825;45.434;9.116;2024-02-14T10:49:50;101173.66;;;17.14;51.97
59971;BME280;45825;45.434;9.116;2024-02-14T10:52:17;101169.78;;;17.70;51.41
59971;BME280;45825;45.434;9.116;2024-02-14T10:54:50;101176.53;;;18.25;49.97
59971;BME280;45825;45.434;9.116;2024-02-14T10:57:18;101182.69;;;18.38;48.29
59971;BME280;45825;45.434;9.116;2024-02-14T10:59:46;101177.06;;;18.54;48.43
59971;BME280;45825;45.434;9.116;2024-02-14T11:02:14;101170.81;;;18.42;47.89
59971;BME280;45825;45.434;9.116;2024-02-14T11:04:39;101166.94;;;19.64;45.05
59971;BME280;45825;45.434;9.116;2024-02-14T11:07:09;101172.16;;;19.08;44.03
59971;BME280;45825;45.434;9.116;2024-02-14T11:09:38;101172.28;;;19.52;43.80
59971;BME280;45825;45.434;9.116;2024-02-14T11:12:07;101175.91;;;19.06;45.23
59971;BME280;45825;45.434;9.116;2024-02-14T11:14:34;101166.69;;;18.38;48.13
59971;BME280;45825;45.434;9.116;2024-02-14T11:17:01;101174.34;;;19.37;45.84
59971;BME280;45825;45.434;9.116;2024-02-14T11:19:33;101173.66;;;20.79;43.05
59971;BME280;45825;45.434;9.116;2024-02-14T11:22:12;101163.63;;;20.71;42.88
59971;BME280;45825;45.434;9.116;2024-02-14T11:24:38;101162.66;;;20.93;41.20
59971;BME280;45825;45.434;9.116;2024-02-14T11:27:10;101151.81;;;21.16;42.08
59971;BME280;45825;45.434;9.116;2024-02-14T11:29:38;101144.13;;;21.64;41.91
59971;BME280;45825;45.434;9.116;2024-02-14T11:32:05;101142.84;;;21.58;41.40
59971;BME280;45825;45.434;9.116;2024-02-14T11:34:33;101139.84;;;22.02;40.18
59971;BME280;45825;45.434;9.116;2024-02-14T11:36:58;101135.41;;;23.00;38.93
59971;BME280;45825;45.434;9.116;2024-02-14T11:39:25;101131.91;;;23.65;37.22
59971;BME280;45825;45.434;9.116;2024-02-14T11:41:50;101132.91;;;23.64;37.08
59971;BME280;45825;45.434;9.116;2024-02-14T11:44:15;101128.44;;;23.55;37.22
59971;BME280;45825;45.434;9.116;2024-02-14T11:46:41;101123.16;;;24.09;36.42
59971;BME280;45825;45.434;9.116;2024-02-14T11:49:07;101131.91;;;24.74;34.98
59971;BME280;45825;45.434;9.116;2024-02-14T11:51:34;101128.63;;;24.80;34.01
59971;BME280;45825;45.434;9.116;2024-02-14T11:54:04;101125.09;;;24.62;34.22
59971;BME280;45825;45.434;9.116;2024-02-14T11:56:32;101113.63;;;25.99;32.15
59971;BME280;45825;45.434;9.116;2024-02-14T11:59:01;101103.16;;;25.79;31.63
59971;BME280;45825;45.434;9.116;2024-02-14T12:01:34;101100.22;;;25.56;31.49
59971;BME280;45825;45.434;9.116;2024-02-14T12:04:01;101115.00;;;25.08;32.42
59971;BME280;45825;45.434;9.116;2024-02-14T12:06:29;101116.66;;;25.87;31.32
59971;BME280;45825;45.434;9.116;2024-02-14T12:08:56;101119.25;;;26.39;30.20
59971;BME280;45825;45.434;9.116;2024-02-14T12:11:22;101121.75;;;26.57;29.87
59971;BME280;45825;45.434;9.116;2024-02-14T12:13:51;101128.53;;;26.61;29.09
59971;BME280;45825;45.434;9.116;2024-02-14T12:16:19;101114.47;;;27.39;27.80
59971;BME280;45825;45.434;9.116;2024-02-14T12:18:45;101111.44;;;26.94;27.52
59971;BME280;45825;45.434;9.116;2024-02-14T12:21:11;101111.41;;;25.77;29.09
59971;BME280;45825;45.434;9.116;2024-02-14T12:23:37;101105.84;;;26.87;28.55
59971;BME280;45825;45.434;9.116;2024-02-14T12:26:03;101097.13;;;27.65;27.16
59971;BME280;45825;45.434;9.116;2024-02-14T12:28:30;101085.81;;;27.93;26.63
59971;BME280;45825;45.434;9.116;2024-02-14T12:30:56;101080.34;;;28.24;24.91
59971;BME280;45825;45.434;9.116;2024-02-14T12:33:25;101075.25;;;28.29;26.10
59971;BME280;45825;45.434;9.116;2024-02-14T12:35:53;101066.13;;;28.46;26.33
59971;BME280;45825;45.434;9.116;2024-02-14T12:38:20;101066.66;;;27.47;26.18
59971;BME280;45825;45.434;9.116;2024-02-14T12:40:46;101078.25;;;27.56;26.57
59971;BME280;45825;45.434;9.116;2024-02-14T12:43:13;101076.56;;;28.49;26.29
59971;BME280;45825;45.434;9.116;2024-02-14T12:45:39;101072.22;;;28.78;25.06